createdAt,value
2022-10-05T00:00:57.636Z,73.90
2022-10-05T00:03:37.226Z,73.90
2022-10-05T00:06:05.056Z,74.10
2022-10-05T00:08:34.729Z,73.80
2022-10-05T00:11:02.019Z,74.00
2022-10-05T00:13:30.755Z,74.00
2022-10-05T00:16:21.347Z,74.10
2022-10-05T00:18:53.280Z,74.50
2022-10-05T00:21:27.476Z,74.40
2022-10-05T00:23:57.822Z,74.40
2022-10-05T00:26:27.627Z,74.40
2022-10-05T00:28:55.181Z,74.60
2022-10-05T00:31:31.613Z,74.50
2022-10-05T00:33:59.118Z,74.70
2022-10-05T00:36:28.550Z,74.80
2022-10-05T00:38:55.648Z,74.30
2022-10-05T00:41:46.241Z,74.40
2022-10-05T00:44:35.006Z,74.80
2022-10-05T00:47:26.007Z,74.80
2022-10-05T00:50:18.268Z,74.70
2022-10-05T00:53:29.792Z,74.90
2022-10-05T00:56:32.833Z,75.30
2022-10-05T00:59:21.611Z,75.10
2022-10-05T01:01:48.755Z,75.10
2022-10-05T01:04:24.066Z,75.10
2022-10-05T01:07:44.009Z,75.40
2022-10-05T01:10:28.216Z,76.00
2022-10-05T01:13:23.985Z,75.70
2022-10-05T01:16:08.342Z,75.70
2022-10-05T01:19:02.273Z,75.90
2022-10-05T01:21:39.148Z,76.40
2022-10-05T01:24:50.227Z,76.30
2022-10-05T01:27:43.260Z,76.50
2022-10-05T01:30:14.457Z,76.70
2022-10-05T01:33:09.554Z,76.40
2022-10-05T01:36:13.065Z,76.70
2022-10-05T01:38:59.364Z,76.70
2022-10-05T01:42:08.573Z,76.60
2022-10-05T01:44:54.307Z,76.90
2022-10-05T01:47:39.138Z,76.60
2022-10-05T01:51:07.880Z,76.50
2022-10-05T01:53:53.854Z,76.50
2022-10-05T01:57:21.645Z,76.20
2022-10-05T02:00:08.066Z,76.50
2022-10-05T02:03:20.414Z,76.10
2022-10-05T02:06:03.425Z,76.30
2022-10-05T02:09:22.497Z,76.20
2022-10-05T02:12:00.588Z,76.60
2022-10-05T02:14:42.263Z,76.30
2022-10-05T02:17:20.336Z,76.50
2022-10-05T02:19:59.366Z,76.60
2022-10-05T02:22:54.791Z,76.50
2022-10-05T02:25:34.277Z,76.80
2022-10-05T02:28:26.224Z,76.70
2022-10-05T02:31:01.608Z,76.80
2022-10-05T02:33:32.119Z,76.80
2022-10-05T02:36:30.493Z,77.10
2022-10-05T02:39:03.660Z,77.00
2022-10-05T02:42:00.185Z,76.60
2022-10-05T02:44:38.883Z,77.10
2022-10-05T02:47:21.292Z,77.00
2022-10-05T02:50:17.277Z,77.10
2022-10-05T02:53:00.490Z,77.30
2022-10-05T02:56:10.945Z,77.30
2022-10-05T02:59:05.025Z,77.50
2022-10-05T03:01:56.042Z,77.50
2022-10-05T03:04:48.445Z,77.60
2022-10-05T03:07:29.624Z,77.60
2022-10-05T03:10:29.053Z,77.50
2022-10-05T03:13:09.594Z,77.70
2022-10-05T03:16:26.125Z,77.50
2022-10-05T03:19:05.771Z,77.40
2022-10-05T03:21:53.933Z,77.10
2022-10-05T03:24:37.025Z,77.40
2022-10-05T03:27:29.550Z,77.40
2022-10-05T03:30:08.791Z,77.80
2022-10-05T03:32:49.055Z,77.70
2022-10-05T03:35:53.682Z,77.70
2022-10-05T03:38:48.684Z,77.70
2022-10-05T03:41:49.372Z,77.80
2022-10-05T03:44:51.990Z,77.80
2022-10-05T03:47:37.937Z,77.90
2022-10-05T03:50:16.277Z,78.00
2022-10-05T03:52:54.323Z,77.80
2022-10-05T03:55:45.396Z,78.00
2022-10-05T03:58:25.467Z,78.20
2022-10-05T04:01:02.757Z,78.00
2022-10-05T04:03:45.992Z,77.90
2022-10-05T04:06:21.477Z,78.00
2022-10-05T04:09:30.449Z,77.90
2022-10-05T04:12:32.917Z,78.00
2022-10-05T04:15:23.808Z,78.00
2022-10-05T04:18:03.893Z,77.90
2022-10-05T04:20:44.136Z,77.70
2022-10-05T04:23:21.537Z,77.70
2022-10-05T04:26:26.936Z,77.60
2022-10-05T04:29:05.817Z,77.60
2022-10-05T04:32:09.237Z,77.60
2022-10-05T04:35:01.409Z,77.50
2022-10-05T04:37:47.035Z,77.30
2022-10-05T04:41:00.363Z,77.40
2022-10-05T04:43:59.570Z,77.50
2022-10-05T04:47:19.496Z,77.20
2022-10-05T04:50:26.469Z,77.50
2022-10-05T04:53:38.163Z,77.30
2022-10-05T04:56:16.448Z,77.40
2022-10-05T04:59:02.915Z,77.30
2022-10-05T05:01:48.413Z,77.40
2022-10-05T05:05:00.112Z,77.50
2022-10-05T05:07:42.946Z,77.50
2022-10-05T05:10:43.812Z,77.20
2022-10-05T05:13:38.413Z,77.40
2022-10-05T05:16:19.976Z,77.10
2022-10-05T05:19:24.812Z,77.30
2022-10-05T05:22:31.783Z,77.20
2022-10-05T05:25:42.094Z,77.40
2022-10-05T05:28:42.689Z,77.60
2022-10-05T05:31:30.929Z,77.50
2022-10-05T05:34:41.682Z,77.60
2022-10-05T05:37:33.976Z,77.50
2022-10-05T05:40:11.378Z,77.50
2022-10-05T05:43:03.447Z,77.50
2022-10-05T05:45:42.832Z,77.60
2022-10-05T05:48:36.085Z,77.40
2022-10-05T05:51:12.015Z,77.50
2022-10-05T05:53:41.370Z,77.40
2022-10-05T05:56:33.639Z,77.30
2022-10-05T05:59:34.520Z,77.30
2022-10-05T06:02:10.499Z,77.40
2022-10-05T06:04:49.456Z,77.30
2022-10-05T06:07:30.223Z,77.30
2022-10-05T06:10:31.685Z,77.20
2022-10-05T06:13:19.611Z,77.20
2022-10-05T06:15:58.176Z,77.00
2022-10-05T06:18:25.994Z,76.90
2022-10-05T06:21:08.448Z,76.80
2022-10-05T06:23:58.175Z,77.50
2022-10-05T06:27:06.823Z,76.60
2022-10-05T06:29:59.239Z,76.60
2022-10-05T06:32:49.872Z,76.20
2022-10-05T06:35:39.413Z,76.10
2022-10-05T06:38:22.656Z,76.00
2022-10-05T06:41:29.520Z,75.60
2022-10-05T06:44:13.639Z,75.50
2022-10-05T06:47:09.233Z,75.40
2022-10-05T06:50:25.195Z,75.20
2022-10-05T06:53:52.874Z,74.70
2022-10-05T06:56:45.566Z,74.30
2022-10-05T06:59:52.960Z,74.00
2022-10-05T07:02:34.683Z,73.60
2022-10-05T07:05:30.025Z,73.50
2022-10-05T07:08:01.765Z,73.30
2022-10-05T07:10:46.774Z,73.10
2022-10-05T07:13:54.046Z,72.70
2022-10-05T07:17:06.120Z,72.40
2022-10-05T07:19:55.118Z,72.30
2022-10-05T07:23:12.754Z,71.30
2022-10-05T07:26:20.187Z,71.00
2022-10-05T07:29:06.925Z,71.00
2022-10-05T07:31:41.274Z,70.20
2022-10-05T07:34:21.947Z,70.40
2022-10-05T07:37:21.688Z,69.00
2022-10-05T07:40:03.412Z,68.20
2022-10-05T07:43:03.176Z,68.10
2022-10-05T07:45:44.088Z,67.50
2022-10-05T07:48:49.584Z,67.50
2022-10-05T07:51:35.262Z,67.50
2022-10-05T07:54:45.281Z,67.40
2022-10-05T07:57:25.699Z,65.80
2022-10-05T08:00:05.968Z,64.90
2022-10-05T08:02:58.435Z,63.70
2022-10-05T08:05:36.028Z,62.50
2022-10-05T08:08:21.269Z,61.60
2022-10-05T08:11:07.066Z,61.10
2022-10-05T08:13:51.794Z,60.80
2022-10-05T08:16:19.672Z,61.00
2022-10-05T08:19:00.224Z,60.70
2022-10-05T08:22:08.560Z,60.20
2022-10-05T08:25:03.613Z,60.00
2022-10-05T08:27:48.801Z,59.80
2022-10-05T08:30:16.992Z,59.70
2022-10-05T08:33:10.513Z,60.00
2022-10-05T08:35:50.204Z,59.80
2022-10-05T08:38:25.062Z,59.60
2022-10-05T08:41:07.182Z,59.60
2022-10-05T08:43:45.856Z,59.70
2022-10-05T08:46:46.478Z,59.80
2022-10-05T08:49:22.341Z,59.60
2022-10-05T08:52:11.790Z,59.10
2022-10-05T08:54:46.663Z,59.00
2022-10-05T08:57:46.579Z,58.60
2022-10-05T09:00:25.526Z,58.40
2022-10-05T09:03:28.970Z,58.20
2022-10-05T09:06:44.807Z,58.10
2022-10-05T09:09:33.364Z,57.80
2022-10-05T09:12:46.252Z,57.70
2022-10-05T09:15:45.892Z,57.40
2022-10-05T09:18:42.198Z,57.10
2022-10-05T09:21:38.472Z,56.90
2022-10-05T09:24:14.590Z,56.70
2022-10-05T09:26:44.489Z,56.70
2022-10-05T09:30:05.404Z,57.00
2022-10-05T09:32:59.212Z,56.90
2022-10-05T09:36:07.502Z,57.00
2022-10-05T09:39:13.299Z,56.80
2022-10-05T09:42:40.505Z,56.50
2022-10-05T09:45:45.664Z,56.20
2022-10-05T09:48:30.194Z,55.70
2022-10-05T09:51:44.488Z,55.40
2022-10-05T09:54:33.518Z,55.30
2022-10-05T09:57:47.206Z,55.80
2022-10-05T10:00:35.514Z,55.80
2022-10-05T10:03:44.348Z,55.80
2022-10-05T10:06:43.291Z,55.80
2022-10-05T10:09:55.445Z,55.70
2022-10-05T10:12:30.841Z,55.70
2022-10-05T10:15:28.757Z,55.70
2022-10-05T10:18:08.799Z,55.10
2022-10-05T10:20:59.340Z,54.90
2022-10-05T10:23:37.967Z,54.40
2022-10-05T10:26:51.583Z,53.90
2022-10-05T10:29:33.275Z,53.80
2022-10-05T10:32:34.889Z,53.70
2022-10-05T10:35:19.636Z,53.90
2022-10-05T10:38:14.074Z,53.90
2022-10-05T10:41:08.756Z,53.70
2022-10-05T10:44:10.990Z,53.20
2022-10-05T10:46:57.165Z,52.90
2022-10-05T10:49:57.974Z,53.10
2022-10-05T10:53:22.745Z,52.90
2022-10-05T10:56:02.919Z,53.00
2022-10-05T10:58:57.993Z,53.10
2022-10-05T11:01:40.249Z,53.30
2022-10-05T11:04:33.631Z,52.90
2022-10-05T11:08:10.469Z,53.10
2022-10-05T11:11:09.014Z,52.90
2022-10-05T11:14:21.463Z,53.10
2022-10-05T11:17:15.502Z,52.60
2022-10-05T11:20:04.097Z,51.50
2022-10-05T11:22:59.453Z,49.80
2022-10-05T11:26:14.489Z,49.60
2022-10-05T11:29:42.650Z,49.10
2022-10-05T11:33:02.976Z,48.10
2022-10-05T11:35:52.933Z,47.40
2022-10-05T11:38:42.153Z,45.40
2022-10-05T11:41:26.353Z,42.30
2022-10-05T11:44:16.449Z,40.80
2022-10-05T11:47:11.455Z,40.10
2022-10-05T11:50:16.289Z,38.60
2022-10-05T11:52:54.519Z,38.30
2022-10-05T11:55:37.906Z,36.70
2022-10-05T11:58:43.024Z,35.80
2022-10-05T12:01:23.450Z,35.50
2022-10-05T12:04:18.313Z,35.80
2022-10-05T12:07:08.240Z,35.20
2022-10-05T12:10:24.069Z,35.00
2022-10-05T12:13:05.074Z,35.00
2022-10-05T12:15:50.179Z,35.80
2022-10-05T12:18:45.912Z,36.50
2022-10-05T12:21:37.133Z,37.40
2022-10-05T12:24:35.077Z,38.50
2022-10-05T12:27:18.599Z,39.70
2022-10-05T12:29:48.188Z,40.40
2022-10-05T12:32:23.301Z,41.90
2022-10-05T12:35:01.890Z,41.50
2022-10-05T12:37:47.028Z,41.00
2022-10-05T12:41:00.055Z,40.30
2022-10-05T12:44:02.741Z,39.70
2022-10-05T12:47:23.057Z,38.30
2022-10-05T12:50:24.361Z,37.60
2022-10-05T12:53:28.914Z,35.20
2022-10-05T12:56:07.360Z,34.60
2022-10-05T12:58:46.752Z,33.60
2022-10-05T13:01:47.854Z,32.60
2022-10-05T13:04:31.004Z,32.60
2022-10-05T13:07:25.097Z,31.90
2022-10-05T13:10:03.617Z,31.80
2022-10-05T13:13:00.771Z,32.40
2022-10-05T13:16:04.567Z,32.20
2022-10-05T13:19:14.936Z,31.20
2022-10-05T13:22:15.835Z,30.90
2022-10-05T13:24:53.891Z,30.00
2022-10-05T13:27:27.941Z,30.20
2022-10-05T13:30:03.768Z,30.60
2022-10-05T13:32:47.907Z,30.50
2022-10-05T13:35:40.249Z,30.80
2022-10-05T13:38:23.311Z,30.80
2022-10-05T13:41:27.383Z,30.80
2022-10-05T13:44:38.414Z,30.90
2022-10-05T13:47:32.661Z,31.50
2022-10-05T13:50:09.594Z,31.20
2022-10-05T13:53:03.664Z,30.90
2022-10-05T13:55:51.023Z,30.70
2022-10-05T13:58:42.971Z,30.60
2022-10-05T14:01:43.293Z,30.40
2022-10-05T14:04:29.385Z,30.70
2022-10-05T14:06:56.616Z,30.20
2022-10-05T14:09:33.992Z,30.20
2022-10-05T14:12:03.663Z,30.30
2022-10-05T14:14:34.334Z,30.00
2022-10-05T14:17:05.933Z,30.30
2022-10-05T14:19:44.164Z,30.60
2022-10-05T14:22:25.026Z,31.20
2022-10-05T14:25:10.060Z,32.00
2022-10-05T14:27:51.551Z,32.50
2022-10-05T14:30:25.682Z,33.40
2022-10-05T14:33:07.028Z,34.20
2022-10-05T14:35:53.740Z,35.00
2022-10-05T14:38:31.644Z,35.90
2022-10-05T14:41:19.899Z,36.50
2022-10-05T14:44:02.029Z,37.40
2022-10-05T14:46:34.625Z,38.10
2022-10-05T14:49:16.963Z,38.60
2022-10-05T14:51:44.438Z,39.40
2022-10-05T14:54:45.986Z,39.80
2022-10-05T14:57:39.969Z,40.50
2022-10-05T15:00:16.477Z,41.20
2022-10-05T15:03:08.917Z,41.40
2022-10-05T15:05:59.270Z,41.40
2022-10-05T15:08:48.085Z,41.10
2022-10-05T15:11:40.479Z,40.80
2022-10-05T15:14:19.651Z,40.60
2022-10-05T15:16:53.470Z,40.60
2022-10-05T15:19:41.132Z,40.40
2022-10-05T15:22:29.335Z,40.50
2022-10-05T15:25:06.144Z,40.60
2022-10-05T15:28:07.475Z,40.80
2022-10-05T15:30:42.963Z,40.60
2022-10-05T15:33:37.950Z,41.00
2022-10-05T15:36:29.159Z,40.40
2022-10-05T15:39:21.802Z,40.00
2022-10-05T15:42:08.115Z,39.60
2022-10-05T15:45:06.171Z,39.30
2022-10-05T15:48:29.094Z,39.30
2022-10-05T15:51:10.681Z,39.40
2022-10-05T15:53:48.157Z,39.60
2022-10-05T15:56:48.262Z,39.90
2022-10-05T15:59:40.173Z,40.30
2022-10-05T16:02:57.373Z,40.70
2022-10-05T16:05:51.944Z,41.30
2022-10-05T16:09:04.642Z,41.60
2022-10-05T16:12:03.186Z,42.30
2022-10-05T16:15:06.453Z,43.10
2022-10-05T16:18:03.641Z,43.70
2022-10-05T16:21:26.431Z,44.20
2022-10-05T16:25:07.722Z,44.80
2022-10-05T16:28:05.356Z,45.30
2022-10-05T16:30:58.921Z,46.00
2022-10-05T16:33:54.693Z,46.60
2022-10-05T16:36:45.491Z,47.00
2022-10-05T16:39:52.132Z,47.30
2022-10-05T16:42:34.831Z,47.80
2022-10-05T16:45:45.403Z,48.10
2022-10-05T16:48:47.898Z,49.00
2022-10-05T16:51:57.903Z,49.30
2022-10-05T16:54:33.585Z,49.80
2022-10-05T16:57:22.490Z,50.00
2022-10-05T17:00:15.045Z,50.30
2022-10-05T17:02:55.777Z,51.00
2022-10-05T17:05:44.288Z,51.20
2022-10-05T17:08:36.757Z,51.40
2022-10-05T17:14:51.633Z,52.10
2022-10-05T17:17:52.068Z,53.00
2022-10-05T17:20:40.199Z,53.50
2022-10-05T17:23:44.238Z,53.40
2022-10-05T17:26:23.130Z,54.40
2022-10-05T17:29:17.031Z,54.90
2022-10-05T17:32:16.016Z,55.30
2022-10-05T17:35:01.165Z,55.70
2022-10-05T17:37:27.993Z,56.00
2022-10-05T17:39:57.439Z,55.80
2022-10-05T17:42:28.689Z,56.50
2022-10-05T17:45:21.440Z,57.00
2022-10-05T17:48:09.365Z,57.40
2022-10-05T17:51:03.615Z,57.80
2022-10-05T17:54:02.255Z,58.10
2022-10-05T17:56:32.281Z,58.30
2022-10-05T17:59:04.105Z,58.30
2022-10-05T18:01:41.496Z,58.80
2022-10-05T18:04:11.452Z,59.30
2022-10-05T18:06:59.016Z,59.50
2022-10-05T18:09:27.097Z,60.30
2022-10-05T18:12:25.945Z,59.80
2022-10-05T18:15:07.963Z,61.00
2022-10-05T18:17:45.541Z,60.90
2022-10-05T18:20:25.417Z,60.90
2022-10-05T18:23:25.500Z,61.10
2022-10-05T18:26:07.187Z,62.40
2022-10-05T18:29:14.680Z,61.80
2022-10-05T18:32:01.303Z,62.30
2022-10-05T18:34:44.734Z,63.00
2022-10-05T18:37:48.369Z,63.00
2022-10-05T18:40:38.323Z,63.40
2022-10-05T18:43:18.240Z,63.00
2022-10-05T18:46:09.033Z,63.30
2022-10-05T18:48:49.923Z,64.30
2022-10-05T18:51:31.194Z,63.80
2022-10-05T18:54:54.286Z,64.80
2022-10-05T18:58:04.174Z,65.20
2022-10-05T19:01:27.001Z,65.30
2022-10-05T19:04:37.794Z,65.30
2022-10-05T19:07:37.631Z,65.60
2022-10-05T19:10:33.118Z,65.00
2022-10-05T19:13:10.826Z,66.10
2022-10-05T19:16:22.606Z,65.90
2022-10-05T19:19:29.466Z,66.60
2022-10-05T19:22:45.873Z,66.50
2022-10-05T19:26:13.336Z,66.80
2022-10-05T19:29:27.058Z,66.70
2022-10-05T19:32:01.669Z,66.30
2022-10-05T19:35:07.586Z,67.20
2022-10-05T19:38:09.580Z,67.00
2022-10-05T19:41:06.088Z,67.50
2022-10-05T19:44:10.926Z,67.30
2022-10-05T19:47:09.365Z,67.80
2022-10-05T19:49:58.759Z,68.10
2022-10-05T19:52:45.141Z,67.90
2022-10-05T19:55:26.562Z,68.20
2022-10-05T19:58:01.221Z,68.20
2022-10-05T20:00:33.042Z,67.90
2022-10-05T20:03:23.602Z,68.40
2022-10-05T20:05:50.473Z,68.80
2022-10-05T20:08:21.713Z,68.20
2022-10-05T20:11:27.578Z,68.20
2022-10-05T20:13:55.196Z,68.90
2022-10-05T20:16:48.330Z,68.30
2022-10-05T20:19:52.157Z,68.60
2022-10-05T20:22:37.244Z,68.80
2022-10-05T20:25:29.828Z,68.60
2022-10-05T20:27:57.958Z,68.50
2022-10-05T20:30:30.958Z,68.30
2022-10-05T20:33:04.424Z,68.60
2022-10-05T20:35:31.333Z,68.40
2022-10-05T20:38:01.979Z,68.40
2022-10-05T20:40:30.349Z,68.50
2022-10-05T20:42:58.390Z,68.60
2022-10-05T20:45:25.508Z,68.50
2022-10-05T20:47:52.556Z,68.60
2022-10-05T20:50:21.061Z,68.60
2022-10-05T20:52:47.867Z,68.70
2022-10-05T20:55:14.939Z,68.80
2022-10-05T20:57:42.242Z,68.90
2022-10-05T21:00:13.251Z,68.80
2022-10-05T21:02:40.324Z,69.10
2022-10-05T21:05:07.986Z,69.00
2022-10-05T21:07:35.529Z,68.90
2022-10-05T21:10:03.658Z,69.00
2022-10-05T21:12:30.873Z,69.10
2022-10-05T21:14:59.702Z,69.10
2022-10-05T21:17:26.508Z,69.20
2022-10-05T21:19:53.804Z,69.20
2022-10-05T21:22:20.584Z,69.30
2022-10-05T21:24:48.530Z,69.40
2022-10-05T21:27:15.505Z,69.50
2022-10-05T21:29:44.055Z,69.60
2022-10-05T21:32:11.612Z,69.70
2022-10-05T21:34:40.283Z,69.80
2022-10-05T21:37:10.297Z,69.90
2022-10-05T21:39:37.322Z,70.00
2022-10-05T21:42:04.560Z,70.10
2022-10-05T21:44:31.604Z,70.10
2022-10-05T21:46:58.721Z,70.20
2022-10-05T21:49:26.564Z,70.50
2022-10-05T21:51:53.999Z,70.50
2022-10-05T21:54:23.519Z,70.40
2022-10-05T21:56:53.928Z,70.50
2022-10-05T21:59:24.255Z,70.40
2022-10-05T22:01:52.045Z,70.40
2022-10-05T22:04:18.873Z,70.40
2022-10-05T22:06:45.914Z,70.50
2022-10-05T22:09:12.801Z,70.40
2022-10-05T22:11:39.895Z,70.40
2022-10-05T22:14:07.200Z,70.30
2022-10-05T22:16:38.417Z,70.20
2022-10-05T22:19:13.407Z,70.50
2022-10-05T22:21:41.752Z,70.20
2022-10-05T22:24:11.507Z,70.20
2022-10-05T22:26:40.655Z,70.10
2022-10-05T22:29:08.159Z,70.10
2022-10-05T22:31:35.517Z,70.90
2022-10-05T22:34:02.623Z,70.30
2022-10-05T22:36:29.479Z,70.40
2022-10-05T22:38:56.467Z,70.20
2022-10-05T22:41:23.546Z,70.20
2022-10-05T22:43:51.477Z,70.20
2022-10-05T22:46:18.904Z,70.30
2022-10-05T22:48:45.770Z,70.20
2022-10-05T22:51:12.944Z,70.20
2022-10-05T22:53:39.835Z,70.20
2022-10-05T22:56:14.257Z,70.30
2022-10-05T22:58:43.252Z,70.30
2022-10-05T23:01:15.398Z,70.20
2022-10-05T23:03:42.854Z,70.30
2022-10-05T23:06:19.667Z,70.30
2022-10-05T23:08:47.245Z,70.40
2022-10-05T23:11:22.731Z,70.30
2022-10-05T23:13:55.710Z,70.50
2022-10-05T23:16:29.745Z,70.50
2022-10-05T23:18:57.636Z,70.50
2022-10-05T23:21:28.774Z,70.60
2022-10-05T23:23:57.445Z,70.70
2022-10-05T23:26:25.958Z,70.80
2022-10-05T23:28:53.150Z,70.90
2022-10-05T23:31:25.173Z,71.10
2022-10-05T23:33:53.786Z,71.20
2022-10-05T23:36:24.153Z,71.20
2022-10-05T23:38:52.173Z,71.60
2022-10-05T23:41:22.415Z,71.70
2022-10-05T23:43:49.669Z,71.70
2022-10-05T23:46:17.801Z,71.80
2022-10-05T23:48:44.785Z,72.00
2022-10-05T23:51:14.112Z,72.20
2022-10-05T23:53:41.245Z,72.30
2022-10-05T23:56:08.495Z,72.40
2022-10-05T23:58:35.780Z,72.60
